Time;durP1;ratioP1;P1;durP2;ratioP2;P2;SDS_P1;SDS_P2;PMS_P1;PMS_P2;Temp;Humidity;BMP_temperature;BMP_pressure;BME280_temperature;BME280_humidity;BME280_pressure;Samples;Min_cycle;Max_cycle;Signal;HPM_P1;HPM_P2
2022/01/27 00:01:07;;;;;;;97.68;38.00;;;5.80;99.90;;;;;;5078440;28;20431;-73
2022/01/27 00:03:45;;;;;;;101.05;41.20;;;5.80;99.90;;;;;;5058568;28;20024;-74
2022/01/27 00:06:11;;;;;;;96.28;38.63;;;5.80;99.90;;;;;;5076051;28;20016;-73
2022/01/27 00:08:43;;;;;;;101.30;38.92;;;5.90;99.90;;;;;;5078083;28;20021;-73
2022/01/27 00:11:14;;;;;;;97.50;38.58;;;5.90;99.90;;;;;;5059975;28;20029;-73
2022/01/27 00:13:47;;;;;;;100.03;40.88;;;5.80;99.90;;;;;;5076233;28;20082;-73
2022/01/27 00:16:21;;;;;;;93.55;39.42;;;5.80;99.90;;;;;;5058135;28;20047;-74
2022/01/27 00:18:49;;;;;;;98.70;40.33;;;5.90;99.90;;;;;;5076375;28;20024;-74
2022/01/27 00:21:17;;;;;;;100.70;39.95;;;5.90;99.90;;;;;;5057952;28;20368;-73
2022/01/27 00:23:45;;;;;;;95.55;37.80;;;5.80;99.90;;;;;;5057785;28;20031;-73
2022/01/27 00:26:11;;;;;;;99.35;37.25;;;5.90;99.90;;;;;;5075996;28;20384;-73
2022/01/27 00:28:37;;;;;;;83.72;36.92;;;5.90;99.90;;;;;;5075690;28;20025;-73
2022/01/27 00:31:03;;;;;;;89.20;36.63;;;5.90;99.90;;;;;;5075856;28;20047;-73
2022/01/27 00:33:28;;;;;;;88.80;37.17;;;5.90;99.90;;;;;;5084105;28;20028;-73
2022/01/27 00:35:54;;;;;;;84.35;35.17;;;5.90;99.90;;;;;;5079819;28;20025;-73
2022/01/27 00:38:20;;;;;;;90.22;38.15;;;5.90;99.90;;;;;;5075942;28;20028;-73
2022/01/27 00:40:45;;;;;;;94.32;38.28;;;5.90;99.90;;;;;;5075433;28;20133;-73
2022/01/27 00:43:11;;;;;;;88.47;36.10;;;5.90;99.90;;;;;;5057725;28;20040;-72
2022/01/27 00:45:37;;;;;;;84.32;35.33;;;5.90;99.90;;;;;;5075431;28;20060;-72
2022/01/27 00:48:04;;;;;;;80.95;32.97;;;5.80;99.90;;;;;;5076301;28;20082;-73
2022/01/27 00:50:32;;;;;;;87.60;36.53;;;5.80;99.90;;;;;;5075549;28;20036;-72
2022/01/27 00:53:00;;;;;;;91.10;37.80;;;5.80;99.90;;;;;;5075736;28;20477;-73
2022/01/27 00:55:28;;;;;;;86.07;36.58;;;5.80;99.90;;;;;;5075447;28;20024;-72
2022/01/27 01:00:44;;;;;;;85.28;34.30;;;5.80;99.90;;;;;;5075071;28;20123;-72
2022/01/27 01:03:22;;;;;;;88.57;32.92;;;5.80;99.90;;;;;;5075254;28;20023;-73
2022/01/27 01:06:05;;;;;;;82.75;35.22;;;5.80;99.90;;;;;;5075385;28;20055;-73
2022/01/27 01:16:44;;;;;;;84.95;33.60;;;5.90;99.90;;;;;;5075299;28;20033;-73
2022/01/27 01:22:10;;;;;;;88.53;34.10;;;5.90;99.90;;;;;;5075586;28;20033;-73
2022/01/27 01:35:11;;;;;;;85.43;31.67;;;5.80;99.90;;;;;;5074266;28;20028;-74
2022/01/27 01:37:39;;;;;;;80.15;33.72;;;5.90;99.90;;;;;;5074717;28;20028;-74
2022/01/27 01:40:07;;;;;;;82.93;32.88;;;5.90;99.90;;;;;;5074789;28;20077;-74
2022/01/27 01:42:33;;;;;;;75.03;32.80;;;5.90;99.90;;;;;;5074622;28;20097;-74
2022/01/27 01:45:05;;;;;;;76.85;33.28;;;5.80;99.90;;;;;;5074597;28;20473;-74
2022/01/27 01:47:30;;;;;;;75.35;32.80;;;5.90;99.90;;;;;;5074515;28;20103;-74
2022/01/27 01:49:56;;;;;;;80.93;33.67;;;5.90;99.90;;;;;;5074832;28;20115;-74
2022/01/27 01:52:22;;;;;;;77.85;32.33;;;5.90;99.90;;;;;;5074708;28;20068;-74
2022/01/27 01:54:47;;;;;;;86.25;34.13;;;5.90;99.90;;;;;;5056968;28;20028;-74
2022/01/27 01:57:14;;;;;;;87.32;35.72;;;5.90;99.90;;;;;;5074994;28;20051;-74
2022/01/27 01:59:40;;;;;;;79.55;32.97;;;5.80;99.90;;;;;;5074187;28;20154;-74
2022/01/27 02:02:06;;;;;;;77.20;35.17;;;5.80;99.90;;;;;;5078198;28;20521;-74
2022/01/27 02:04:31;;;;;;;84.28;34.13;;;5.80;99.90;;;;;;5081830;28;20017;-74
2022/01/27 02:07:02;;;;;;;79.30;34.83;;;5.80;99.90;;;;;;5076286;28;20021;-74
2022/01/27 02:20:12;;;;;;;89.32;36.20;;;5.80;99.90;;;;;;5073791;28;20101;-74
2022/01/27 02:22:39;;;;;;;76.78;33.38;;;5.90;99.90;;;;;;5074151;28;20468;-74
2022/01/27 02:25:06;;;;;;;80.28;34.55;;;5.90;99.90;;;;;;5073633;28;20483;-74
2022/01/27 02:27:33;;;;;;;82.78;33.88;;;5.90;99.90;;;;;;5073843;28;20027;-74
2022/01/27 02:30:00;;;;;;;76.13;35.65;;;5.90;99.90;;;;;;5074460;28;20049;-74
2022/01/27 02:32:25;;;;;;;81.50;35.63;;;5.90;99.90;;;;;;5074008;28;20109;-74
2022/01/27 02:34:51;;;;;;;92.47;35.35;;;5.80;99.90;;;;;;5073872;28;20434;-74
2022/01/27 02:37:17;;;;;;;86.88;34.95;;;5.80;99.90;;;;;;5056599;28;20473;-74
2022/01/27 02:39:42;;;;;;;94.40;37.05;;;5.90;99.90;;;;;;5074459;28;20128;-74
2022/01/27 02:42:16;;;;;;;86.35;36.75;;;5.90;99.90;;;;;;5074575;28;20100;-74
2022/01/27 02:44:53;;;;;;;81.13;34.33;;;5.90;99.90;;;;;;5073617;28;20032;-74
2022/01/27 02:47:21;;;;;;;82.10;35.22;;;5.90;99.90;;;;;;5073659;28;20493;-74
2022/01/27 02:49:47;;;;;;;83.35;37.65;;;5.90;99.90;;;;;;5073670;28;20040;-74
2022/01/27 02:52:13;;;;;;;78.95;33.65;;;5.90;99.90;;;;;;5080006;28;20037;-73
2022/01/27 02:54:38;;;;;;;74.70;34.55;;;5.90;99.90;;;;;;5055869;28;20169;-74
2022/01/27 02:57:04;;;;;;;88.75;35.53;;;5.90;99.90;;;;;;5055325;28;20066;-74
2022/01/27 02:59:30;;;;;;;74.60;32.60;;;5.90;99.90;;;;;;5073874;28;20024;-74
2022/01/27 03:01:56;;;;;;;71.70;33.20;;;5.90;99.90;;;;;;5073765;28;20413;-74
2022/01/27 03:04:23;;;;;;;78.65;35.00;;;6.00;99.90;;;;;;5073279;28;20035;-74
2022/01/27 03:06:49;;;;;;;79.03;34.28;;;6.00;99.90;;;;;;5072771;28;20066;-73
2022/01/27 03:09:15;;;;;;;79.57;34.35;;;5.90;99.90;;;;;;5072789;28;20446;-73
2022/01/27 03:11:44;;;;;;;82.70;33.97;;;5.90;99.90;;;;;;5055546;28;20048;-74
2022/01/27 03:14:10;;;;;;;71.07;33.50;;;6.00;99.90;;;;;;5072790;28;20032;-74
2022/01/27 03:16:35;;;;;;;80.15;32.30;;;6.00;99.90;;;;;;5072576;28;20427;-73
2022/01/27 03:19:01;;;;;;;81.75;33.70;;;5.90;99.90;;;;;;5072645;28;20031;-74
2022/01/27 03:21:28;;;;;;;74.07;33.20;;;6.00;99.90;;;;;;5072722;28;20070;-74
2022/01/27 03:23:53;;;;;;;70.65;30.88;;;6.00;99.90;;;;;;5072820;28;20035;-74
2022/01/27 03:26:19;;;;;;;76.30;34.30;;;6.00;99.90;;;;;;5072715;28;20021;-73
2022/01/27 03:28:46;;;;;;;74.28;32.00;;;5.90;99.90;;;;;;5054998;28;20473;-74
2022/01/27 03:31:16;;;;;;;75.70;32.47;;;6.00;99.90;;;;;;5054805;28;20136;-74
2022/01/27 03:33:42;;;;;;;78.32;32.80;;;6.00;99.90;;;;;;5072654;28;20032;-74
2022/01/27 03:36:08;;;;;;;72.53;31.83;;;6.00;99.90;;;;;;5072546;28;20025;-74
2022/01/27 03:38:34;;;;;;;76.50;33.42;;;6.00;99.90;;;;;;5059991;28;20112;-73
2022/01/27 03:41:05;;;;;;;74.85;30.48;;;6.00;99.90;;;;;;5078488;28;20052;-73
2022/01/27 03:43:30;;;;;;;74.60;32.65;;;6.00;99.90;;;;;;5072975;28;20543;-73
2022/01/27 03:45:56;;;;;;;77.40;31.70;;;6.00;99.90;;;;;;5072732;28;20060;-73
2022/01/27 03:48:21;;;;;;;69.68;31.27;;;6.00;99.90;;;;;;5072737;28;20024;-74
2022/01/27 03:50:47;;;;;;;77.70;33.03;;;6.00;99.90;;;;;;5054692;28;20055;-74
2022/01/27 03:53:14;;;;;;;75.20;32.22;;;6.00;99.90;;;;;;5072705;28;20037;-74
2022/01/27 03:55:40;;;;;;;76.82;31.80;;;6.00;99.90;;;;;;5055280;28;20059;-74
2022/01/27 03:58:06;;;;;;;70.20;31.42;;;6.10;99.90;;;;;;5074945;28;20066;-74
2022/01/27 04:00:32;;;;;;;76.95;32.53;;;6.00;99.90;;;;;;5077310;28;20391;-74
2022/01/27 04:03:04;;;;;;;72.82;33.25;;;6.10;99.90;;;;;;5058755;28;20025;-74
2022/01/27 04:05:36;;;;;;;71.05;32.65;;;6.10;99.90;;;;;;5076458;28;20066;-73
2022/01/27 04:08:03;;;;;;;73.30;32.63;;;6.10;99.90;;;;;;5076224;28;20017;-73
2022/01/27 04:10:29;;;;;;;73.63;32.25;;;6.00;99.90;;;;;;5075865;28;20090;-73
2022/01/27 04:12:54;;;;;;;70.28;33.00;;;6.00;99.90;;;;;;5076050;28;20446;-73
2022/01/27 04:15:20;;;;;;;71.72;33.78;;;6.10;99.90;;;;;;5075605;28;20052;-73
2022/01/27 04:17:45;;;;;;;75.25;32.88;;;6.00;99.90;;;;;;5076082;28;20028;-73
2022/01/27 04:20:11;;;;;;;74.20;33.08;;;6.00;99.90;;;;;;5075679;28;20028;-74
2022/01/27 04:22:37;;;;;;;77.53;34.35;;;6.00;99.90;;;;;;5075834;28;20012;-74
2022/01/27 04:25:03;;;;;;;74.10;32.95;;;6.00;99.90;;;;;;5075801;28;20031;-74
2022/01/27 04:27:32;;;;;;;75.93;34.47;;;6.00;99.90;;;;;;5075805;28;20420;-74
2022/01/27 04:29:58;;;;;;;79.40;34.58;;;5.90;99.90;;;;;;5076167;28;20066;-74
2022/01/27 04:32:30;;;;;;;81.90;35.22;;;5.90;99.90;;;;;;5076169;28;20025;-74
2022/01/27 04:35:01;;;;;;;77.95;34.90;;;5.90;99.90;;;;;;5057573;28;20108;-74
2022/01/27 04:37:29;;;;;;;75.65;32.65;;;5.90;99.90;;;;;;5076181;28;20017;-74
2022/01/27 04:40:05;;;;;;;76.07;35.17;;;6.00;99.90;;;;;;5057150;28;20464;-74
2022/01/27 04:45:19;;;;;;;77.50;34.83;;;5.90;99.90;;;;;;5064038;28;20028;-74
2022/01/27 04:47:49;;;;;;;78.03;35.50;;;5.90;99.90;;;;;;5075558;28;20020;-73
2022/01/27 04:50:15;;;;;;;71.72;31.30;;;5.80;99.90;;;;;;5075829;28;20021;-73
2022/01/27 04:52:45;;;;;;;87.22;36.67;;;5.70;99.90;;;;;;5075163;28;20398;-73
2022/01/27 04:55:13;;;;;;;86.63;35.35;;;5.70;99.90;;;;;;5075025;28;20546;-73
2022/01/27 04:57:41;;;;;;;74.40;37.78;;;5.60;99.90;;;;;;5075003;28;20055;-73
2022/01/27 05:00:09;;;;;;;76.57;33.78;;;5.60;99.90;;;;;;5074857;28;20021;-74
2022/01/27 05:05:00;;;;;;;79.20;34.22;;;5.60;99.90;;;;;;5074868;28;20022;-74
2022/01/27 05:07:25;;;;;;;77.95;35.33;;;5.60;99.90;;;;;;5074741;28;20027;-74
2022/01/27 05:09:57;;;;;;;84.03;36.38;;;5.60;99.90;;;;;;5073890;28;20435;-74
2022/01/27 05:12:37;;;;;;;78.18;35.67;;;5.60;99.90;;;;;;5075190;28;20319;-74
2022/01/27 05:15:03;;;;;;;73.22;32.92;;;5.60;99.90;;;;;;5082326;28;20028;-74
2022/01/27 05:17:29;;;;;;;70.28;33.58;;;5.60;99.90;;;;;;5078168;22;20056;-71
2022/01/27 05:19:54;;;;;;;78.97;34.55;;;5.70;99.90;;;;;;5065776;28;20037;-72
2022/01/27 05:22:20;;;;;;;71.00;32.05;;;5.70;99.90;;;;;;5066019;28;20040;-71
2022/01/27 05:24:45;;;;;;;76.63;32.80;;;5.70;99.90;;;;;;5066269;28;20029;-74
2022/01/27 05:27:11;;;;;;;78.55;33.35;;;5.70;99.90;;;;;;5066528;28;20029;-73
2022/01/27 05:29:36;;;;;;;74.30;31.88;;;5.70;99.90;;;;;;5064459;28;20032;-72
2022/01/27 05:32:03;;;;;;;77.05;33.90;;;5.70;99.90;;;;;;5062236;28;20039;-72
2022/01/27 05:34:28;;;;;;;75.38;33.10;;;5.70;99.90;;;;;;5058414;28;20032;-71
2022/01/27 05:36:54;;;;;;;76.55;33.65;;;5.70;99.90;;;;;;5060077;28;20021;-72
2022/01/27 05:39:19;;;;;;;81.60;34.45;;;5.60;99.90;;;;;;5059843;28;20485;-72
2022/01/27 05:41:45;;;;;;;74.47;35.28;;;5.50;99.90;;;;;;5059342;28;20037;-72
2022/01/27 05:44:10;;;;;;;75.40;33.25;;;5.50;99.90;;;;;;5057134;28;20446;-72
2022/01/27 05:46:36;;;;;;;76.75;34.13;;;5.50;99.90;;;;;;5056553;28;20051;-71
2022/01/27 05:49:02;;;;;;;86.63;36.35;;;5.50;99.90;;;;;;5058119;28;20032;-72
2022/01/27 05:51:28;;;;;;;82.97;35.28;;;5.50;99.90;;;;;;5059024;28;20025;-72
2022/01/27 05:53:53;;;;;;;77.22;35.90;;;5.50;99.90;;;;;;5054816;28;20021;-72
2022/01/27 05:56:19;;;;;;;84.95;34.85;;;5.40;99.90;;;;;;5057324;28;20025;-72
2022/01/27 05:58:45;;;;;;;73.95;33.83;;;5.40;99.90;;;;;;5059569;28;20487;-72
2022/01/27 06:01:14;;;;;;;79.00;35.25;;;5.40;99.90;;;;;;5058432;28;20047;-72
2022/01/27 06:03:40;;;;;;;78.30;34.25;;;5.40;99.90;;;;;;5059218;28;20017;-72
2022/01/27 06:06:06;;;;;;;86.55;37.90;;;5.30;99.90;;;;;;5059804;28;20111;-72
2022/01/27 06:08:31;;;;;;;87.88;36.42;;;5.30;99.90;;;;;;5061395;28;20035;-73
2022/01/27 06:10:58;;;;;;;84.70;36.40;;;5.30;99.90;;;;;;5059911;28;20021;-72
2022/01/27 06:13:23;;;;;;;81.15;36.50;;;5.30;99.90;;;;;;5060276;28;20052;-72
2022/01/27 06:15:49;;;;;;;77.03;34.45;;;5.30;99.90;;;;;;5059388;28;20036;-72
2022/01/27 06:18:15;;;;;;;74.72;36.17;;;5.30;99.90;;;;;;5061212;28;20029;-73
2022/01/27 06:20:43;;;;;;;86.85;36.90;;;5.30;99.90;;;;;;5064322;28;20036;-72
2022/01/27 06:23:09;;;;;;;79.90;36.80;;;5.30;99.90;;;;;;5064263;28;20029;-73
2022/01/27 06:25:35;;;;;;;86.18;38.75;;;5.30;99.90;;;;;;5061661;28;20047;-72
2022/01/27 06:28:00;;;;;;;78.07;35.60;;;5.40;99.90;;;;;;5059722;28;20078;-72
2022/01/27 06:30:26;;;;;;;75.55;32.58;;;5.40;99.90;;;;;;5061453;28;20036;-73
2022/01/27 06:32:52;;;;;;;81.78;34.35;;;5.30;99.90;;;;;;5065237;28;20017;-72
2022/01/27 06:35:18;;;;;;;72.93;33.78;;;5.40;99.90;;;;;;5066085;28;20024;-72
2022/01/27 06:37:45;;;;;;;75.82;33.72;;;5.40;99.90;;;;;;5066215;28;20021;-73
2022/01/27 06:40:12;;;;;;;78.68;34.45;;;5.50;99.90;;;;;;5061863;28;20078;-72
2022/01/27 06:42:38;;;;;;;80.85;34.63;;;5.40;99.90;;;;;;5058824;28;20482;-72
2022/01/27 06:45:05;;;;;;;74.63;33.90;;;5.40;99.90;;;;;;5059585;28;20060;-73
2022/01/27 06:47:31;;;;;;;70.38;33.60;;;5.50;99.90;;;;;;5058515;28;20068;-72
2022/01/27 06:49:56;;;;;;;73.60;32.00;;;5.50;99.90;;;;;;5058205;28;20120;-72
2022/01/27 06:52:25;;;;;;;79.57;33.72;;;5.50;99.90;;;;;;5056978;28;20025;-72
2022/01/27 06:54:51;;;;;;;66.95;33.58;;;5.50;99.90;;;;;;5057035;28;20037;-72
2022/01/27 06:57:18;;;;;;;71.55;32.40;;;5.50;99.90;;;;;;5058868;28;20021;-72
2022/01/27 06:59:43;;;;;;;73.28;33.10;;;5.50;99.90;;;;;;5058229;28;20013;-73
2022/01/27 07:02:09;;;;;;;71.13;32.35;;;5.40;99.90;;;;;;5058800;28;20039;-72
2022/01/27 07:04:35;;;;;;;71.30;31.60;;;5.40;99.90;;;;;;5058456;28;20025;-72
2022/01/27 07:07:01;;;;;;;72.07;32.97;;;5.50;99.90;;;;;;5060384;28;20017;-72
2022/01/27 07:09:26;;;;;;;72.90;34.30;;;5.50;99.90;;;;;;5061881;28;20072;-72
2022/01/27 07:11:52;;;;;;;70.00;31.52;;;5.40;99.90;;;;;;5063107;28;20092;-72
2022/01/27 07:14:18;;;;;;;72.82;32.53;;;5.40;99.90;;;;;;5062565;28;20021;-72
2022/01/27 07:16:44;;;;;;;67.47;31.23;;;5.40;99.90;;;;;;5060100;28;20029;-72
2022/01/27 07:19:09;;;;;;;69.43;32.75;;;5.40;99.90;;;;;;5059260;28;20028;-72
2022/01/27 07:21:35;;;;;;;66.50;31.55;;;5.40;99.90;;;;;;5058540;28;20104;-72
2022/01/27 07:24:01;;;;;;;65.15;31.73;;;5.40;99.90;;;;;;5059288;28;20090;-72
2022/01/27 07:26:26;;;;;;;70.75;33.50;;;5.40;99.90;;;;;;5057764;28;20025;-72
2022/01/27 07:28:53;;;;;;;65.63;31.38;;;5.40;99.90;;;;;;5058028;28;20021;-72
2022/01/27 07:31:19;;;;;;;60.65;30.25;;;5.40;99.90;;;;;;5056283;28;20085;-72
2022/01/27 07:33:48;;;;;;;62.10;30.02;;;5.50;99.90;;;;;;5062440;28;20110;-72
2022/01/27 07:36:17;;;;;;;58.78;29.00;;;5.50;99.90;;;;;;5063456;28;20048;-72
2022/01/27 07:38:43;;;;;;;65.43;28.65;;;5.50;99.90;;;;;;5061259;28;20100;-71
2022/01/27 07:41:12;;;;;;;59.50;28.63;;;5.50;99.90;;;;;;5062074;28;20096;-72
2022/01/27 07:43:38;;;;;;;66.10;30.20;;;5.50;99.90;;;;;;5060765;28;20027;-72
2022/01/27 07:46:04;;;;;;;63.40;29.52;;;5.50;99.90;;;;;;5062438;28;20044;-72
2022/01/27 07:48:29;;;;;;;61.35;27.33;;;5.50;99.90;;;;;;5061404;28;20085;-72
2022/01/27 07:50:55;;;;;;;57.03;28.27;;;5.50;99.90;;;;;;5062068;28;20025;-72
2022/01/27 07:53:21;;;;;;;64.25;27.50;;;5.60;99.90;;;;;;5061710;28;20020;-71
2022/01/27 07:55:47;;;;;;;52.92;26.75;;;5.60;99.90;;;;;;5061119;28;20013;-71
2022/01/27 07:58:13;;;;;;;57.22;25.98;;;5.50;99.90;;;;;;5060593;28;20021;-72
2022/01/27 08:00:39;;;;;;;49.28;24.73;;;5.60;99.90;;;;;;5062056;28;20079;-72
2022/01/27 08:03:04;;;;;;;57.83;25.67;;;5.60;99.90;;;;;;5062579;28;20025;-71
2022/01/27 08:05:30;;;;;;;52.13;26.67;;;5.50;99.90;;;;;;5064655;28;20033;-73
2022/01/27 08:07:56;;;;;;;47.00;24.70;;;5.60;99.90;;;;;;5062574;28;20052;-72
2022/01/27 08:10:21;;;;;;;51.85;24.30;;;5.70;99.90;;;;;;5061162;28;20031;-72
2022/01/27 08:12:47;;;;;;;46.72;23.48;;;5.70;99.90;;;;;;5061855;28;20025;-72
2022/01/27 08:15:14;;;;;;;46.22;24.20;;;5.70;99.90;;;;;;5061242;28;20462;-72
2022/01/27 08:17:40;;;;;;;51.17;23.70;;;5.70;99.90;;;;;;5060846;28;20025;-72
2022/01/27 08:20:07;;;;;;;48.03;23.20;;;5.70;99.90;;;;;;5061841;28;20060;-72
2022/01/27 08:22:36;;;;;;;41.55;21.92;;;5.80;99.90;;;;;;5059092;28;20025;-71
2022/01/27 08:25:02;;;;;;;41.83;22.73;;;5.80;99.90;;;;;;5059388;28;20394;-71
2022/01/27 08:27:30;;;;;;;47.22;23.27;;;5.80;99.90;;;;;;5059952;28;20020;-72
2022/01/27 08:30:02;;;;;;;41.55;21.38;;;5.90;99.90;;;;;;5061955;28;20029;-72
2022/01/27 08:32:44;;;;;;;41.47;22.65;;;5.90;99.90;;;;;;5061448;28;20025;-72
2022/01/27 08:35:10;;;;;;;41.58;21.70;;;5.90;99.90;;;;;;5063375;28;20021;-72
2022/01/27 08:37:36;;;;;;;41.97;20.05;;;5.90;99.90;;;;;;5060799;28;20025;-71
2022/01/27 08:40:02;;;;;;;38.88;20.60;;;5.90;99.90;;;;;;5058671;28;20025;-72
2022/01/27 08:42:28;;;;;;;38.20;21.60;;;6.00;99.90;;;;;;5058786;28;20021;-71
2022/01/27 08:44:53;;;;;;;40.45;20.48;;;6.00;99.90;;;;;;5058522;28;20497;-71
2022/01/27 08:47:19;;;;;;;39.40;20.55;;;6.00;99.90;;;;;;5058076;28;20025;-71
2022/01/27 08:49:46;;;;;;;37.70;19.73;;;6.00;99.90;;;;;;5060049;28;20109;-71
2022/01/27 08:52:12;;;;;;;40.38;20.35;;;6.00;99.90;;;;;;5058818;28;20013;-72
2022/01/27 08:54:38;;;;;;;39.42;20.05;;;6.00;99.90;;;;;;5058986;28;20157;-71
2022/01/27 08:57:04;;;;;;;34.72;19.60;;;6.00;99.90;;;;;;5055351;28;20033;-71
2022/01/27 08:59:30;;;;;;;36.47;19.27;;;6.00;99.90;;;;;;5052941;28;20462;-71
2022/01/27 09:01:55;;;;;;;35.03;18.13;;;6.00;99.90;;;;;;5056514;28;20021;-72
2022/01/27 09:04:21;;;;;;;37.20;19.63;;;6.00;99.90;;;;;;5050258;28;20120;-72
2022/01/27 09:06:46;;;;;;;38.13;19.30;;;6.00;99.90;;;;;;5052556;28;20025;-72
2022/01/27 09:09:12;;;;;;;34.72;18.88;;;6.10;99.90;;;;;;5048925;28;20025;-72
2022/01/27 09:11:39;;;;;;;34.90;18.92;;;6.10;99.90;;;;;;5051239;28;20029;-72
2022/01/27 09:14:05;;;;;;;35.38;18.60;;;6.10;99.90;;;;;;5053186;28;20025;-72
2022/01/27 09:16:31;;;;;;;31.10;17.85;;;6.10;99.90;;;;;;5049289;28;20167;-72
2022/01/27 09:19:00;;;;;;;32.63;18.05;;;6.10;99.90;;;;;;5049631;28;20017;-73
2022/01/27 09:21:33;;;;;;;32.45;17.20;;;6.10;99.90;;;;;;5048446;28;20027;-72
2022/01/27 09:23:58;;;;;;;33.67;19.27;;;6.20;99.90;;;;;;5048348;28;20036;-71
2022/01/27 09:26:41;;;;;;;31.10;18.90;;;6.20;99.90;;;;;;5052178;28;20030;-71
2022/01/27 09:29:08;;;;;;;33.50;18.08;;;6.20;99.90;;;;;;5053248;28;20092;-72
2022/01/27 09:31:34;;;;;;;32.38;17.20;;;6.20;99.90;;;;;;5058370;28;20025;-72
2022/01/27 09:34:00;;;;;;;33.03;17.95;;;6.30;99.90;;;;;;5048641;28;20380;-72
2022/01/27 09:36:26;;;;;;;28.73;16.95;;;6.20;99.90;;;;;;5050067;28;20060;-72
2022/01/27 09:38:51;;;;;;;31.25;16.52;;;6.30;99.90;;;;;;5048049;28;20021;-72
2022/01/27 09:41:19;;;;;;;26.85;16.45;;;6.40;99.90;;;;;;5045038;28;20051;-72
2022/01/27 09:43:47;;;;;;;33.85;17.55;;;6.40;99.90;;;;;;5044121;28;20021;-71
2022/01/27 09:46:16;;;;;;;29.70;16.05;;;6.50;99.90;;;;;;5043662;28;20032;-72
2022/01/27 09:48:45;;;;;;;26.70;16.90;;;6.50;99.90;;;;;;5046645;28;20047;-72
2022/01/27 09:53:53;;;;;;;30.13;17.77;;;6.60;99.90;;;;;;5062415;28;20546;-71
2022/01/27 09:56:20;;;;;;;32.63;17.98;;;6.60;99.90;;;;;;5061970;28;20037;-73
2022/01/27 09:58:46;;;;;;;28.98;17.85;;;6.60;99.90;;;;;;5053912;28;20021;-72
2022/01/27 10:01:12;;;;;;;30.83;18.08;;;6.70;99.90;;;;;;5051242;28;20343;-71
2022/01/27 10:03:56;;;;;;;31.40;18.75;;;6.60;99.90;;;;;;5051033;28;20052;-71
2022/01/27 10:06:30;;;;;;;34.13;19.35;;;6.70;99.90;;;;;;5062944;28;20025;-72
2022/01/27 10:09:17;;;;;;;34.90;19.02;;;6.70;99.90;;;;;;5059192;28;20402;-72
2022/01/27 10:11:46;;;;;;;34.42;18.23;;;6.70;99.90;;;;;;5047055;28;20474;-72
2022/01/27 10:14:27;;;;;;;33.40;19.55;;;6.70;99.90;;;;;;5051215;28;20036;-72
2022/01/27 10:16:56;;;;;;;40.22;20.75;;;6.70;99.90;;;;;;5047314;28;20021;-71
2022/01/27 10:19:25;;;;;;;34.67;18.52;;;6.70;99.90;;;;;;5048842;28;20026;-72
2022/01/27 10:22:02;;;;;;;36.28;19.65;;;6.80;99.90;;;;;;5052045;28;20044;-72
2022/01/27 10:24:30;;;;;;;41.63;19.05;;;6.80;99.90;;;;;;5052318;28;20031;-72
2022/01/27 10:27:47;;;;;;;33.47;18.70;;;6.90;99.90;;;;;;5051604;28;20021;-72
2022/01/27 10:32:51;;;;;;;36.35;16.92;;;6.90;99.90;;;;;;5048530;28;20064;-72
2022/01/27 10:35:21;;;;;;;37.70;17.90;;;6.90;99.90;;;;;;5045154;28;20056;-72
2022/01/27 10:38:09;;;;;;;41.60;19.92;;;6.90;99.90;;;;;;5049287;28;20043;-71
2022/01/27 10:40:41;;;;;;;37.90;17.95;;;7.00;99.90;;;;;;5049581;28;20024;-72
2022/01/27 10:43:17;;;;;;;38.55;18.17;;;7.00;99.90;;;;;;5055903;28;20036;-72
2022/01/27 10:46:29;;;;;;;36.90;17.40;;;7.10;99.90;;;;;;5048643;28;20028;-72
2022/01/27 10:51:25;;;;;;;44.95;17.75;;;7.20;99.90;;;;;;5064133;28;20029;-73
2022/01/27 10:56:31;;;;;;;37.22;16.30;;;7.30;99.90;;;;;;5051576;28;20082;-72
2022/01/27 10:58:58;;;;;;;32.53;15.60;;;7.40;99.90;;;;;;5057762;28;20425;-72
2022/01/27 11:01:27;;;;;;;33.90;15.88;;;7.40;99.90;;;;;;5053107;28;20033;-72
2022/01/27 11:03:55;;;;;;;28.88;15.05;;;7.50;99.90;;;;;;5056831;28;20040;-73
2022/01/27 11:06:24;;;;;;;30.27;14.20;;;7.50;99.90;;;;;;5050678;28;20033;-72
2022/01/27 11:08:54;;;;;;;35.72;15.13;;;7.60;99.90;;;;;;5057770;28;20405;-72
2022/01/27 11:11:24;;;;;;;45.72;17.05;;;7.60;99.90;;;;;;5063195;28;20026;-72
2022/01/27 11:13:51;;;;;;;29.00;14.18;;;7.70;99.90;;;;;;5055780;28;20017;-71
2022/01/27 11:16:21;;;;;;;31.00;14.43;;;7.70;99.90;;;;;;5058214;28;20048;-73
2022/01/27 11:18:47;;;;;;;41.43;15.40;;;7.80;99.90;;;;;;5086234;23;20024;-73
2022/01/27 11:21:30;;;;;;;32.28;14.82;;;7.80;99.90;;;;;;5056511;28;20035;-73
2022/01/27 11:24:05;;;;;;;37.25;15.70;;;7.80;99.90;;;;;;5056141;28;20084;-73
2022/01/27 11:26:32;;;;;;;40.35;15.40;;;7.90;99.90;;;;;;5056845;28;20040;-72
2022/01/27 11:28:58;;;;;;;39.55;15.90;;;7.90;99.90;;;;;;5057340;28;20067;-73
2022/01/27 11:31:37;;;;;;;37.13;15.95;;;8.00;99.90;;;;;;5055526;28;20044;-73
2022/01/27 11:34:05;;;;;;;37.20;14.95;;;8.00;99.90;;;;;;5052908;28;20028;-73
2022/01/27 11:36:31;;;;;;;39.92;15.73;;;7.90;99.90;;;;;;5055831;28;20048;-73
2022/01/27 11:38:58;;;;;;;45.78;15.77;;;7.90;99.90;;;;;;5056494;28;20178;-73
2022/01/27 11:41:44;;;;;;;36.03;15.45;;;7.90;99.90;;;;;;5055182;28;20075;-73
2022/01/27 11:44:23;;;;;;;39.72;14.85;;;8.00;99.90;;;;;;5053509;28;20504;-72
2022/01/27 11:47:07;;;;;;;33.38;14.00;;;8.10;99.90;;;;;;5056833;28;20024;-71
2022/01/27 11:50:07;;;;;;;37.97;14.30;;;8.10;99.90;;;;;;5060299;28;20021;-71
2022/01/27 11:52:34;;;;;;;40.80;13.32;;;8.10;99.90;;;;;;5050894;28;20466;-72
2022/01/27 11:55:23;;;;;;;43.08;14.73;;;8.10;99.90;;;;;;5056017;28;20107;-72
2022/01/27 11:57:49;;;;;;;27.08;13.82;;;8.20;99.90;;;;;;5041353;28;20462;-72
2022/01/27 12:00:23;;;;;;;34.63;11.95;;;8.20;99.90;;;;;;5055441;28;20039;-73
2022/01/27 12:03:01;;;;;;;37.28;12.10;;;8.30;99.90;;;;;;5055193;28;20104;-72
2022/01/27 12:05:28;;;;;;;37.15;12.48;;;8.30;99.90;;;;;;5053331;28;20036;-72
2022/01/27 12:08:12;;;;;;;30.30;11.85;;;8.30;99.90;;;;;;5054797;28;20029;-73
2022/01/27 12:10:48;;;;;;;26.27;11.65;;;8.40;99.90;;;;;;5052380;28;20021;-73
2022/01/27 12:19:09;;;;;;;30.70;10.65;;;8.40;99.90;;;;;;5050709;28;20056;-71
2022/01/27 12:21:44;;;;;;;22.10;9.38;;;8.40;99.90;;;;;;5056158;28;20029;-72
2022/01/27 12:24:18;;;;;;;30.30;10.52;;;8.40;99.90;;;;;;5054105;28;20097;-72
2022/01/27 12:26:51;;;;;;;24.45;10.02;;;8.40;99.90;;;;;;5055808;28;20028;-69
2022/01/27 12:29:35;;;;;;;25.58;7.80;;;8.40;99.90;;;;;;5054355;28;20033;-70
2022/01/27 12:32:06;;;;;;;25.73;7.78;;;8.50;99.90;;;;;;5057301;28;20112;-70
2022/01/27 12:34:33;;;;;;;29.02;8.18;;;8.60;99.90;;;;;;5058688;28;20048;-70
2022/01/27 12:37:07;;;;;;;21.13;7.63;;;8.60;99.90;;;;;;5055747;28;20021;-71
2022/01/27 12:39:36;;;;;;;20.75;8.15;;;8.80;99.90;;;;;;5054139;28;20028;-71
2022/01/27 12:42:06;;;;;;;29.23;7.93;;;8.70;99.90;;;;;;5055528;28;20025;-72
2022/01/27 12:44:33;;;;;;;32.03;8.25;;;8.60;99.90;;;;;;5055280;28;20110;-72
2022/01/27 12:47:05;;;;;;;28.52;8.43;;;8.60;99.90;;;;;;5055585;28;20017;-72
2022/01/27 12:49:38;;;;;;;29.50;9.32;;;8.60;99.90;;;;;;5055344;28;20096;-72
2022/01/27 12:52:09;;;;;;;34.00;9.18;;;8.60;99.90;;;;;;5055366;28;20017;-71
2022/01/27 12:54:36;;;;;;;24.92;7.50;;;8.70;99.90;;;;;;5055335;28;20114;-73
2022/01/27 12:57:02;;;;;;;21.23;5.72;;;8.80;99.90;;;;;;5054931;28;20052;-72
2022/01/27 12:59:34;;;;;;;24.42;5.75;;;8.80;99.90;;;;;;5052842;28;20040;-72
2022/01/27 13:02:03;;;;;;;23.25;5.40;;;8.90;99.90;;;;;;5055306;28;20037;-72
2022/01/27 13:04:29;;;;;;;30.70;5.90;;;8.90;99.90;;;;;;5054732;28;20028;-73
2022/01/27 13:06:56;;;;;;;23.88;5.38;;;9.00;99.90;;;;;;5054997;28;20104;-73
2022/01/27 13:09:22;;;;;;;14.27;3.85;;;9.00;99.90;;;;;;5052722;28;20013;-72
2022/01/27 13:11:51;;;;;;;20.65;4.85;;;9.10;99.90;;;;;;5053749;28;20191;-72
2022/01/27 13:14:17;;;;;;;17.20;4.30;;;9.20;99.90;;;;;;5054076;28;20025;-73
2022/01/27 13:16:49;;;;;;;25.52;5.10;;;9.20;99.90;;;;;;5054546;28;20098;-73
2022/01/27 13:19:25;;;;;;;25.95;5.47;;;9.20;99.90;;;;;;5054042;28;20021;-73
2022/01/27 13:22:06;;;;;;;24.95;4.78;;;9.20;99.90;;;;;;5053069;28;20112;-72
2022/01/27 13:24:34;;;;;;;26.17;5.20;;;9.10;99.90;;;;;;5052667;28;20461;-71
2022/01/27 13:27:12;;;;;;;25.23;5.22;;;9.20;99.90;;;;;;5054000;28;20035;-71
2022/01/27 13:29:45;;;;;;;33.83;4.90;;;9.20;99.90;;;;;;5052172;28;20025;-71
2022/01/27 13:32:12;;;;;;;29.65;4.88;;;9.20;99.90;;;;;;5054811;28;20437;-71
2022/01/27 13:34:48;;;;;;;29.45;5.97;;;9.30;99.90;;;;;;5054890;28;20379;-72
2022/01/27 13:37:27;;;;;;;27.15;4.80;;;9.30;99.90;;;;;;5054870;28;20437;-72
2022/01/27 13:42:18;;;;;;;28.27;4.63;;;9.40;99.90;;;;;;5054949;28;20523;-72
2022/01/27 13:44:54;;;;;;;26.48;4.60;;;9.40;99.90;;;;;;5055240;28;20112;-72